<?xml version="1.0" encoding="UTF-8"?>
<gpx version="1.1" creator="https://www.youtrack.es" xsi:schemaLocation="http://www.topografix.com/GPX/1/1 http://www.topografix.com/GPX/1/1/gpx.xsd http://www.garmin.com/xmlschemas/GpxExtensions/v3 http://www.garmin.com/xmlschemas/GpxExtensionsv3.xsd http://www.garmin.com/xmlschemas/TrackPointExtension/v1 http://www.garmin.com/xmlschemas/TrackPointExtensionv1.xsd" xmlns:gpxtpx="http://www.garmin.com/xmlschemas/TrackPointExtension/v1" xmlns:gpxx="http://www.garmin.com/xmlschemas/GpxExtensions/v3" xmlns:xsi="http://www.w3.org/2001/XMLSchema-instance">
  <metadata>
    <link href="https://www.youtrack.es">
      <text>YouTrack.es</text>
    </link>
    <time>2026-05-10T15:55:43Z</time>
  </metadata>
  <trk>
    <src>https://www.youtrack.es</src>
    <link href="https://www.youtrack.es/ruta/30379-le-tour-col--du-tour-cab--du-trient">
      <text>YouTrack.es</text>
    </link>
    <trkseg>
      <trkpt lat="45.997760" lon="6.937090">
        <ele>0.00</ele>
        <time>2022-03-23T18:18:10.24Z</time>
      </trkpt>
      <trkpt lat="45.997750" lon="6.937330">
        <ele>0.00</ele>
        <time>2022-03-23T18:18:11.24Z</time>
      </trkpt>
      <trkpt lat="45.997740" lon="6.937540">
        <ele>0.00</ele>
        <time>2022-03-23T18:18:12.24Z</time>
      </trkpt>
      <trkpt lat="45.997720" lon="6.937750">
        <ele>0.00</ele>
        <time>2022-03-23T18:18:13.24Z</time>
      </trkpt>
      <trkpt lat="45.997580" lon="6.937890">
        <ele>0.00</ele>
        <time>2022-03-23T18:18:14.24Z</time>
      </trkpt>
      <trkpt lat="45.997400" lon="6.937960">
        <ele>0.00</ele>
        <time>2022-03-23T18:18:15.24Z</time>
      </trkpt>
      <trkpt lat="45.997210" lon="6.938040">
        <ele>0.00</ele>
        <time>2022-03-23T18:18:16.24Z</time>
      </trkpt>
      <trkpt lat="45.997200" lon="6.938240">
        <ele>0.00</ele>
        <time>2022-03-23T18:18:17.24Z</time>
      </trkpt>
      <trkpt lat="45.997300" lon="6.938430">
        <ele>0.00</ele>
        <time>2022-03-23T18:18:18.24Z</time>
      </trkpt>
      <trkpt lat="45.997390" lon="6.938610">
        <ele>0.00</ele>
        <time>2022-03-23T18:18:19.24Z</time>
      </trkpt>
      <trkpt lat="45.997460" lon="6.938810">
        <ele>0.00</ele>
        <time>2022-03-23T18:18:20.24Z</time>
      </trkpt>
      <trkpt lat="45.997520" lon="6.939010">
        <ele>0.00</ele>
        <time>2022-03-23T18:18:21.24Z</time>
      </trkpt>
      <trkpt lat="45.997580" lon="6.939210">
        <ele>0.00</ele>
        <time>2022-03-23T18:18:22.24Z</time>
      </trkpt>
      <trkpt lat="45.997640" lon="6.939410">
        <ele>0.00</ele>
        <time>2022-03-23T18:18:23.24Z</time>
      </trkpt>
      <trkpt lat="45.997700" lon="6.939610">
        <ele>0.00</ele>
        <time>2022-03-23T18:18:24.24Z</time>
      </trkpt>
      <trkpt lat="45.997760" lon="6.939810">
        <ele>0.00</ele>
        <time>2022-03-23T18:18:25.24Z</time>
      </trkpt>
      <trkpt lat="45.997830" lon="6.940010">
        <ele>0.00</ele>
        <time>2022-03-23T18:18:26.24Z</time>
      </trkpt>
      <trkpt lat="45.997890" lon="6.940210">
        <ele>0.00</ele>
        <time>2022-03-23T18:18:27.24Z</time>
      </trkpt>
      <trkpt lat="45.997950" lon="6.940410">
        <ele>0.00</ele>
        <time>2022-03-23T18:18:28.24Z</time>
      </trkpt>
      <trkpt lat="45.998010" lon="6.940620">
        <ele>0.00</ele>
        <time>2022-03-23T18:18:29.24Z</time>
      </trkpt>
      <trkpt lat="45.998040" lon="6.940820">
        <ele>0.00</ele>
        <time>2022-03-23T18:18:30.24Z</time>
      </trkpt>
      <trkpt lat="45.998030" lon="6.941020">
        <ele>0.00</ele>
        <time>2022-03-23T18:18:31.24Z</time>
      </trkpt>
      <trkpt lat="45.998020" lon="6.941220">
        <ele>0.00</ele>
        <time>2022-03-23T18:18:32.24Z</time>
      </trkpt>
      <trkpt lat="45.998010" lon="6.941420">
        <ele>0.00</ele>
        <time>2022-03-23T18:18:33.24Z</time>
      </trkpt>
      <trkpt lat="45.998000" lon="6.941620">
        <ele>0.00</ele>
        <time>2022-03-23T18:18:34.24Z</time>
      </trkpt>
      <trkpt lat="45.997990" lon="6.941810">
        <ele>0.00</ele>
        <time>2022-03-23T18:18:35.24Z</time>
      </trkpt>
      <trkpt lat="45.997990" lon="6.942010">
        <ele>0.00</ele>
        <time>2022-03-23T18:18:36.24Z</time>
      </trkpt>
      <trkpt lat="45.997980" lon="6.942210">
        <ele>0.00</ele>
        <time>2022-03-23T18:18:37.24Z</time>
      </trkpt>
      <trkpt lat="45.997970" lon="6.942410">
        <ele>0.00</ele>
        <time>2022-03-23T18:18:38.24Z</time>
      </trkpt>
      <trkpt lat="45.997960" lon="6.942610">
        <ele>0.00</ele>
        <time>2022-03-23T18:18:39.24Z</time>
      </trkpt>
      <trkpt lat="45.997950" lon="6.942810">
        <ele>0.00</ele>
        <time>2022-03-23T18:18:40.24Z</time>
      </trkpt>
      <trkpt lat="45.997940" lon="6.943010">
        <ele>0.00</ele>
        <time>2022-03-23T18:18:41.24Z</time>
      </trkpt>
      <trkpt lat="45.997930" lon="6.943210">
        <ele>0.00</ele>
        <time>2022-03-23T18:18:42.24Z</time>
      </trkpt>
      <trkpt lat="45.997930" lon="6.943410">
        <ele>0.00</ele>
        <time>2022-03-23T18:18:43.24Z</time>
      </trkpt>
      <trkpt lat="45.997920" lon="6.943610">
        <ele>0.00</ele>
        <time>2022-03-23T18:18:44.24Z</time>
      </trkpt>
      <trkpt lat="45.997910" lon="6.943810">
        <ele>0.00</ele>
        <time>2022-03-23T18:18:45.24Z</time>
      </trkpt>
      <trkpt lat="45.997900" lon="6.944010">
        <ele>0.00</ele>
        <time>2022-03-23T18:18:46.24Z</time>
      </trkpt>
      <trkpt lat="45.997890" lon="6.944210">
        <ele>0.00</ele>
        <time>2022-03-23T18:18:47.24Z</time>
      </trkpt>
      <trkpt lat="45.997880" lon="6.944410">
        <ele>0.00</ele>
        <time>2022-03-23T18:18:48.24Z</time>
      </trkpt>
      <trkpt lat="45.997870" lon="6.944610">
        <ele>0.00</ele>
        <time>2022-03-23T18:18:49.24Z</time>
      </trkpt>
      <trkpt lat="45.997870" lon="6.944810">
        <ele>0.00</ele>
        <time>2022-03-23T18:18:50.24Z</time>
      </trkpt>
      <trkpt lat="45.997860" lon="6.945020">
        <ele>0.00</ele>
        <time>2022-03-23T18:18:51.24Z</time>
      </trkpt>
      <trkpt lat="45.997880" lon="6.945210">
        <ele>0.00</ele>
        <time>2022-03-23T18:18:52.24Z</time>
      </trkpt>
      <trkpt lat="45.997890" lon="6.945420">
        <ele>0.00</ele>
        <time>2022-03-23T18:18:53.24Z</time>
      </trkpt>
      <trkpt lat="45.997910" lon="6.945620">
        <ele>0.00</ele>
        <time>2022-03-23T18:18:54.24Z</time>
      </trkpt>
      <trkpt lat="45.997920" lon="6.945830">
        <ele>0.00</ele>
        <time>2022-03-23T18:18:55.24Z</time>
      </trkpt>
      <trkpt lat="45.997930" lon="6.946030">
        <ele>0.00</ele>
        <time>2022-03-23T18:18:56.24Z</time>
      </trkpt>
      <trkpt lat="45.997950" lon="6.946240">
        <ele>0.00</ele>
        <time>2022-03-23T18:18:57.24Z</time>
      </trkpt>
      <trkpt lat="45.997960" lon="6.946450">
        <ele>0.00</ele>
        <time>2022-03-23T18:18:58.24Z</time>
      </trkpt>
      <trkpt lat="45.997980" lon="6.946660">
        <ele>0.00</ele>
        <time>2022-03-23T18:18:59.24Z</time>
      </trkpt>
      <trkpt lat="45.997990" lon="6.946870">
        <ele>0.00</ele>
        <time>2022-03-23T18:19:00.24Z</time>
      </trkpt>
      <trkpt lat="45.998010" lon="6.947080">
        <ele>0.00</ele>
        <time>2022-03-23T18:19:01.24Z</time>
      </trkpt>
      <trkpt lat="45.998020" lon="6.947290">
        <ele>0.00</ele>
        <time>2022-03-23T18:19:02.24Z</time>
      </trkpt>
      <trkpt lat="45.998030" lon="6.947500">
        <ele>0.00</ele>
        <time>2022-03-23T18:19:03.24Z</time>
      </trkpt>
      <trkpt lat="45.998050" lon="6.947710">
        <ele>0.00</ele>
        <time>2022-03-23T18:19:04.24Z</time>
      </trkpt>
      <trkpt lat="45.998060" lon="6.947920">
        <ele>0.00</ele>
        <time>2022-03-23T18:19:05.24Z</time>
      </trkpt>
      <trkpt lat="45.998080" lon="6.948130">
        <ele>0.00</ele>
        <time>2022-03-23T18:19:06.24Z</time>
      </trkpt>
      <trkpt lat="45.998090" lon="6.948340">
        <ele>0.00</ele>
        <time>2022-03-23T18:19:07.24Z</time>
      </trkpt>
      <trkpt lat="45.998110" lon="6.948550">
        <ele>0.00</ele>
        <time>2022-03-23T18:19:08.24Z</time>
      </trkpt>
      <trkpt lat="45.998120" lon="6.948760">
        <ele>0.00</ele>
        <time>2022-03-23T18:19:09.24Z</time>
      </trkpt>
      <trkpt lat="45.998050" lon="6.948950">
        <ele>0.00</ele>
        <time>2022-03-23T18:19:10.24Z</time>
      </trkpt>
      <trkpt lat="45.997890" lon="6.949090">
        <ele>0.00</ele>
        <time>2022-03-23T18:19:11.24Z</time>
      </trkpt>
      <trkpt lat="45.997740" lon="6.949220">
        <ele>0.00</ele>
        <time>2022-03-23T18:19:12.24Z</time>
      </trkpt>
      <trkpt lat="45.997570" lon="6.949350">
        <ele>0.00</ele>
        <time>2022-03-23T18:19:13.24Z</time>
      </trkpt>
      <trkpt lat="45.997420" lon="6.949480">
        <ele>0.00</ele>
        <time>2022-03-23T18:19:14.24Z</time>
      </trkpt>
      <trkpt lat="45.997260" lon="6.949610">
        <ele>0.00</ele>
        <time>2022-03-23T18:19:15.24Z</time>
      </trkpt>
      <trkpt lat="45.997110" lon="6.949740">
        <ele>0.00</ele>
        <time>2022-03-23T18:19:16.24Z</time>
      </trkpt>
      <trkpt lat="45.996950" lon="6.949870">
        <ele>0.00</ele>
        <time>2022-03-23T18:19:17.24Z</time>
      </trkpt>
      <trkpt lat="45.996800" lon="6.950000">
        <ele>0.00</ele>
        <time>2022-03-23T18:19:18.24Z</time>
      </trkpt>
      <trkpt lat="45.996630" lon="6.950120">
        <ele>0.00</ele>
        <time>2022-03-23T18:19:19.24Z</time>
      </trkpt>
      <trkpt lat="45.996460" lon="6.950230">
        <ele>0.00</ele>
        <time>2022-03-23T18:19:20.24Z</time>
      </trkpt>
      <trkpt lat="45.996280" lon="6.950340">
        <ele>0.00</ele>
        <time>2022-03-23T18:19:21.24Z</time>
      </trkpt>
      <trkpt lat="45.996100" lon="6.950450">
        <ele>0.00</ele>
        <time>2022-03-23T18:19:22.24Z</time>
      </trkpt>
      <trkpt lat="45.995920" lon="6.950570">
        <ele>0.00</ele>
        <time>2022-03-23T18:19:23.24Z</time>
      </trkpt>
      <trkpt lat="45.995750" lon="6.950680">
        <ele>0.00</ele>
        <time>2022-03-23T18:19:24.24Z</time>
      </trkpt>
      <trkpt lat="45.995640" lon="6.950850">
        <ele>0.00</ele>
        <time>2022-03-23T18:19:25.24Z</time>
      </trkpt>
      <trkpt lat="45.995540" lon="6.951040">
        <ele>0.00</ele>
        <time>2022-03-23T18:19:26.24Z</time>
      </trkpt>
      <trkpt lat="45.995440" lon="6.951210">
        <ele>0.00</ele>
        <time>2022-03-23T18:19:27.24Z</time>
      </trkpt>
      <trkpt lat="45.995340" lon="6.951400">
        <ele>0.00</ele>
        <time>2022-03-23T18:19:28.24Z</time>
      </trkpt>
      <trkpt lat="45.995240" lon="6.951570">
        <ele>0.00</ele>
        <time>2022-03-23T18:19:29.24Z</time>
      </trkpt>
      <trkpt lat="45.995140" lon="6.951750">
        <ele>0.00</ele>
        <time>2022-03-23T18:19:30.24Z</time>
      </trkpt>
      <trkpt lat="45.995040" lon="6.951940">
        <ele>0.00</ele>
        <time>2022-03-23T18:19:31.24Z</time>
      </trkpt>
      <trkpt lat="45.994940" lon="6.952120">
        <ele>0.00</ele>
        <time>2022-03-23T18:19:32.24Z</time>
      </trkpt>
      <trkpt lat="45.994880" lon="6.952320">
        <ele>0.00</ele>
        <time>2022-03-23T18:19:33.24Z</time>
      </trkpt>
      <trkpt lat="45.994820" lon="6.952520">
        <ele>0.00</ele>
        <time>2022-03-23T18:19:34.24Z</time>
      </trkpt>
      <trkpt lat="45.994760" lon="6.952710">
        <ele>0.00</ele>
        <time>2022-03-23T18:19:35.24Z</time>
      </trkpt>
      <trkpt lat="45.994700" lon="6.952910">
        <ele>0.00</ele>
        <time>2022-03-23T18:19:36.24Z</time>
      </trkpt>
      <trkpt lat="45.994650" lon="6.953100">
        <ele>0.00</ele>
        <time>2022-03-23T18:19:37.24Z</time>
      </trkpt>
      <trkpt lat="45.994590" lon="6.953300">
        <ele>0.00</ele>
        <time>2022-03-23T18:19:38.24Z</time>
      </trkpt>
      <trkpt lat="45.994540" lon="6.953490">
        <ele>0.00</ele>
        <time>2022-03-23T18:19:39.24Z</time>
      </trkpt>
      <trkpt lat="45.994480" lon="6.953680">
        <ele>0.00</ele>
        <time>2022-03-23T18:19:40.24Z</time>
      </trkpt>
      <trkpt lat="45.994430" lon="6.953870">
        <ele>0.00</ele>
        <time>2022-03-23T18:19:41.24Z</time>
      </trkpt>
      <trkpt lat="45.994400" lon="6.954070">
        <ele>0.00</ele>
        <time>2022-03-23T18:19:42.24Z</time>
      </trkpt>
      <trkpt lat="45.994390" lon="6.954280">
        <ele>0.00</ele>
        <time>2022-03-23T18:19:43.24Z</time>
      </trkpt>
      <trkpt lat="45.994380" lon="6.954490">
        <ele>0.00</ele>
        <time>2022-03-23T18:19:44.24Z</time>
      </trkpt>
      <trkpt lat="45.994370" lon="6.954700">
        <ele>0.00</ele>
        <time>2022-03-23T18:19:45.24Z</time>
      </trkpt>
      <trkpt lat="45.994370" lon="6.954910">
        <ele>0.00</ele>
        <time>2022-03-23T18:19:46.24Z</time>
      </trkpt>
      <trkpt lat="45.994360" lon="6.955120">
        <ele>0.00</ele>
        <time>2022-03-23T18:19:47.24Z</time>
      </trkpt>
      <trkpt lat="45.994350" lon="6.955330">
        <ele>0.00</ele>
        <time>2022-03-23T18:19:48.24Z</time>
      </trkpt>
      <trkpt lat="45.994340" lon="6.955540">
        <ele>0.00</ele>
        <time>2022-03-23T18:19:49.24Z</time>
      </trkpt>
      <trkpt lat="45.994340" lon="6.955750">
        <ele>0.00</ele>
        <time>2022-03-23T18:19:50.24Z</time>
      </trkpt>
      <trkpt lat="45.994330" lon="6.955960">
        <ele>0.00</ele>
        <time>2022-03-23T18:19:51.24Z</time>
      </trkpt>
      <trkpt lat="45.994320" lon="6.956170">
        <ele>0.00</ele>
        <time>2022-03-23T18:19:52.24Z</time>
      </trkpt>
      <trkpt lat="45.994300" lon="6.956370">
        <ele>0.00</ele>
        <time>2022-03-23T18:19:53.24Z</time>
      </trkpt>
      <trkpt lat="45.994230" lon="6.956560">
        <ele>0.00</ele>
        <time>2022-03-23T18:19:54.24Z</time>
      </trkpt>
      <trkpt lat="45.994150" lon="6.956760">
        <ele>0.00</ele>
        <time>2022-03-23T18:19:55.24Z</time>
      </trkpt>
      <trkpt lat="45.994080" lon="6.956940">
        <ele>0.00</ele>
        <time>2022-03-23T18:19:56.24Z</time>
      </trkpt>
      <trkpt lat="45.994000" lon="6.957130">
        <ele>0.00</ele>
        <time>2022-03-23T18:19:57.24Z</time>
      </trkpt>
      <trkpt lat="45.993930" lon="6.957310">
        <ele>0.00</ele>
        <time>2022-03-23T18:19:58.24Z</time>
      </trkpt>
      <trkpt lat="45.993860" lon="6.957500">
        <ele>0.00</ele>
        <time>2022-03-23T18:19:59.24Z</time>
      </trkpt>
      <trkpt lat="45.993790" lon="6.957690">
        <ele>0.00</ele>
        <time>2022-03-23T18:20:00.24Z</time>
      </trkpt>
      <trkpt lat="45.993710" lon="6.957870">
        <ele>0.00</ele>
        <time>2022-03-23T18:20:01.24Z</time>
      </trkpt>
      <trkpt lat="45.993640" lon="6.958060">
        <ele>0.00</ele>
        <time>2022-03-23T18:20:02.24Z</time>
      </trkpt>
      <trkpt lat="45.993630" lon="6.958270">
        <ele>0.00</ele>
        <time>2022-03-23T18:20:03.24Z</time>
      </trkpt>
      <trkpt lat="45.993650" lon="6.958480">
        <ele>0.00</ele>
        <time>2022-03-23T18:20:04.24Z</time>
      </trkpt>
      <trkpt lat="45.993670" lon="6.958670">
        <ele>0.00</ele>
        <time>2022-03-23T18:20:05.24Z</time>
      </trkpt>
      <trkpt lat="45.993690" lon="6.958880">
        <ele>0.00</ele>
        <time>2022-03-23T18:20:06.24Z</time>
      </trkpt>
      <trkpt lat="45.993710" lon="6.959080">
        <ele>0.00</ele>
        <time>2022-03-23T18:20:07.24Z</time>
      </trkpt>
      <trkpt lat="45.993740" lon="6.959290">
        <ele>0.00</ele>
        <time>2022-03-23T18:20:08.24Z</time>
      </trkpt>
      <trkpt lat="45.993760" lon="6.959500">
        <ele>0.00</ele>
        <time>2022-03-23T18:20:09.24Z</time>
      </trkpt>
      <trkpt lat="45.993780" lon="6.959710">
        <ele>0.00</ele>
        <time>2022-03-23T18:20:10.24Z</time>
      </trkpt>
      <trkpt lat="45.993800" lon="6.959920">
        <ele>0.00</ele>
        <time>2022-03-23T18:20:11.24Z</time>
      </trkpt>
      <trkpt lat="45.993830" lon="6.960130">
        <ele>0.00</ele>
        <time>2022-03-23T18:20:12.24Z</time>
      </trkpt>
      <trkpt lat="45.993840" lon="6.960330">
        <ele>0.00</ele>
        <time>2022-03-23T18:20:13.24Z</time>
      </trkpt>
      <trkpt lat="45.993840" lon="6.960530">
        <ele>0.00</ele>
        <time>2022-03-23T18:20:14.24Z</time>
      </trkpt>
      <trkpt lat="45.993840" lon="6.960730">
        <ele>0.00</ele>
        <time>2022-03-23T18:20:15.24Z</time>
      </trkpt>
      <trkpt lat="45.993840" lon="6.960930">
        <ele>0.00</ele>
        <time>2022-03-23T18:20:16.24Z</time>
      </trkpt>
      <trkpt lat="45.993840" lon="6.961130">
        <ele>0.00</ele>
        <time>2022-03-23T18:20:17.24Z</time>
      </trkpt>
      <trkpt lat="45.993840" lon="6.961330">
        <ele>0.00</ele>
        <time>2022-03-23T18:20:18.24Z</time>
      </trkpt>
      <trkpt lat="45.993840" lon="6.961530">
        <ele>0.00</ele>
        <time>2022-03-23T18:20:19.24Z</time>
      </trkpt>
      <trkpt lat="45.993840" lon="6.961730">
        <ele>0.00</ele>
        <time>2022-03-23T18:20:20.24Z</time>
      </trkpt>
      <trkpt lat="45.993840" lon="6.961930">
        <ele>0.00</ele>
        <time>2022-03-23T18:20:21.24Z</time>
      </trkpt>
      <trkpt lat="45.993840" lon="6.962130">
        <ele>0.00</ele>
        <time>2022-03-23T18:20:22.24Z</time>
      </trkpt>
      <trkpt lat="45.993840" lon="6.962330">
        <ele>0.00</ele>
        <time>2022-03-23T18:20:23.24Z</time>
      </trkpt>
      <trkpt lat="45.993840" lon="6.962530">
        <ele>0.00</ele>
        <time>2022-03-23T18:20:24.24Z</time>
      </trkpt>
      <trkpt lat="45.993840" lon="6.962730">
        <ele>0.00</ele>
        <time>2022-03-23T18:20:25.24Z</time>
      </trkpt>
      <trkpt lat="45.993840" lon="6.962930">
        <ele>0.00</ele>
        <time>2022-03-23T18:20:26.24Z</time>
      </trkpt>
      <trkpt lat="45.993840" lon="6.963130">
        <ele>0.00</ele>
        <time>2022-03-23T18:20:27.24Z</time>
      </trkpt>
      <trkpt lat="45.993840" lon="6.963330">
        <ele>0.00</ele>
        <time>2022-03-23T18:20:28.24Z</time>
      </trkpt>
      <trkpt lat="45.993830" lon="6.963540">
        <ele>0.00</ele>
        <time>2022-03-23T18:20:29.24Z</time>
      </trkpt>
      <trkpt lat="45.993740" lon="6.963730">
        <ele>0.00</ele>
        <time>2022-03-23T18:20:30.24Z</time>
      </trkpt>
      <trkpt lat="45.993650" lon="6.963910">
        <ele>0.00</ele>
        <time>2022-03-23T18:20:31.24Z</time>
      </trkpt>
      <trkpt lat="45.993560" lon="6.964100">
        <ele>0.00</ele>
        <time>2022-03-23T18:20:32.24Z</time>
      </trkpt>
      <trkpt lat="45.993470" lon="6.964290">
        <ele>0.00</ele>
        <time>2022-03-23T18:20:33.24Z</time>
      </trkpt>
      <trkpt lat="45.993380" lon="6.964480">
        <ele>0.00</ele>
        <time>2022-03-23T18:20:34.24Z</time>
      </trkpt>
      <trkpt lat="45.993290" lon="6.964670">
        <ele>0.00</ele>
        <time>2022-03-23T18:20:35.24Z</time>
      </trkpt>
      <trkpt lat="45.993200" lon="6.964850">
        <ele>0.00</ele>
        <time>2022-03-23T18:20:36.24Z</time>
      </trkpt>
      <trkpt lat="45.993110" lon="6.965040">
        <ele>0.00</ele>
        <time>2022-03-23T18:20:37.24Z</time>
      </trkpt>
      <trkpt lat="45.992990" lon="6.965210">
        <ele>0.00</ele>
        <time>2022-03-23T18:20:38.24Z</time>
      </trkpt>
      <trkpt lat="45.992870" lon="6.965370">
        <ele>0.00</ele>
        <time>2022-03-23T18:20:39.24Z</time>
      </trkpt>
      <trkpt lat="45.992740" lon="6.965530">
        <ele>0.00</ele>
        <time>2022-03-23T18:20:40.24Z</time>
      </trkpt>
      <trkpt lat="45.992620" lon="6.965690">
        <ele>0.00</ele>
        <time>2022-03-23T18:20:41.24Z</time>
      </trkpt>
      <trkpt lat="45.992490" lon="6.965860">
        <ele>0.00</ele>
        <time>2022-03-23T18:20:42.24Z</time>
      </trkpt>
      <trkpt lat="45.992370" lon="6.966030">
        <ele>0.00</ele>
        <time>2022-03-23T18:20:43.24Z</time>
      </trkpt>
      <trkpt lat="45.992240" lon="6.966180">
        <ele>0.00</ele>
        <time>2022-03-23T18:20:44.24Z</time>
      </trkpt>
      <trkpt lat="45.992100" lon="6.966330">
        <ele>0.00</ele>
        <time>2022-03-23T18:20:45.24Z</time>
      </trkpt>
      <trkpt lat="45.991950" lon="6.966480">
        <ele>0.00</ele>
        <time>2022-03-23T18:20:46.24Z</time>
      </trkpt>
      <trkpt lat="45.991810" lon="6.966630">
        <ele>0.00</ele>
        <time>2022-03-23T18:20:47.24Z</time>
      </trkpt>
      <trkpt lat="45.991670" lon="6.966780">
        <ele>0.00</ele>
        <time>2022-03-23T18:20:48.24Z</time>
      </trkpt>
      <trkpt lat="45.991530" lon="6.966920">
        <ele>0.00</ele>
        <time>2022-03-23T18:20:49.24Z</time>
      </trkpt>
      <trkpt lat="45.991390" lon="6.967070">
        <ele>0.00</ele>
        <time>2022-03-23T18:20:50.24Z</time>
      </trkpt>
      <trkpt lat="45.991240" lon="6.967230">
        <ele>0.00</ele>
        <time>2022-03-23T18:20:51.24Z</time>
      </trkpt>
      <trkpt lat="45.991160" lon="6.967410">
        <ele>0.00</ele>
        <time>2022-03-23T18:20:52.24Z</time>
      </trkpt>
      <trkpt lat="45.991090" lon="6.967610">
        <ele>0.00</ele>
        <time>2022-03-23T18:20:53.24Z</time>
      </trkpt>
      <trkpt lat="45.991030" lon="6.967810">
        <ele>0.00</ele>
        <time>2022-03-23T18:20:54.24Z</time>
      </trkpt>
      <trkpt lat="45.990960" lon="6.968010">
        <ele>0.00</ele>
        <time>2022-03-23T18:20:55.24Z</time>
      </trkpt>
      <trkpt lat="45.990890" lon="6.968210">
        <ele>0.00</ele>
        <time>2022-03-23T18:20:56.24Z</time>
      </trkpt>
      <trkpt lat="45.990830" lon="6.968400">
        <ele>0.00</ele>
        <time>2022-03-23T18:20:57.24Z</time>
      </trkpt>
      <trkpt lat="45.990760" lon="6.968600">
        <ele>0.00</ele>
        <time>2022-03-23T18:20:58.24Z</time>
      </trkpt>
      <trkpt lat="45.990760" lon="6.968810">
        <ele>0.00</ele>
        <time>2022-03-23T18:20:59.24Z</time>
      </trkpt>
      <trkpt lat="45.990810" lon="6.969000">
        <ele>0.00</ele>
        <time>2022-03-23T18:21:00.24Z</time>
      </trkpt>
      <trkpt lat="45.990850" lon="6.969210">
        <ele>0.00</ele>
        <time>2022-03-23T18:21:01.24Z</time>
      </trkpt>
      <trkpt lat="45.990890" lon="6.969400">
        <ele>0.00</ele>
        <time>2022-03-23T18:21:02.24Z</time>
      </trkpt>
      <trkpt lat="45.990940" lon="6.969610">
        <ele>0.00</ele>
        <time>2022-03-23T18:21:03.24Z</time>
      </trkpt>
      <trkpt lat="45.990980" lon="6.969800">
        <ele>0.00</ele>
        <time>2022-03-23T18:21:04.24Z</time>
      </trkpt>
      <trkpt lat="45.991020" lon="6.970000">
        <ele>0.00</ele>
        <time>2022-03-23T18:21:05.24Z</time>
      </trkpt>
      <trkpt lat="45.991060" lon="6.970200">
        <ele>0.00</ele>
        <time>2022-03-23T18:21:06.24Z</time>
      </trkpt>
      <trkpt lat="45.991040" lon="6.970400">
        <ele>0.00</ele>
        <time>2022-03-23T18:21:07.24Z</time>
      </trkpt>
      <trkpt lat="45.991020" lon="6.970600">
        <ele>0.00</ele>
        <time>2022-03-23T18:21:08.24Z</time>
      </trkpt>
      <trkpt lat="45.991000" lon="6.970800">
        <ele>0.00</ele>
        <time>2022-03-23T18:21:09.24Z</time>
      </trkpt>
      <trkpt lat="45.990970" lon="6.971010">
        <ele>0.00</ele>
        <time>2022-03-23T18:21:10.24Z</time>
      </trkpt>
      <trkpt lat="45.990950" lon="6.971220">
        <ele>0.00</ele>
        <time>2022-03-23T18:21:11.24Z</time>
      </trkpt>
      <trkpt lat="45.990920" lon="6.971430">
        <ele>0.00</ele>
        <time>2022-03-23T18:21:12.24Z</time>
      </trkpt>
      <trkpt lat="45.990900" lon="6.971630">
        <ele>0.00</ele>
        <time>2022-03-23T18:21:13.24Z</time>
      </trkpt>
      <trkpt lat="45.990880" lon="6.971840">
        <ele>0.00</ele>
        <time>2022-03-23T18:21:14.24Z</time>
      </trkpt>
      <trkpt lat="45.990850" lon="6.972050">
        <ele>0.00</ele>
        <time>2022-03-23T18:21:15.24Z</time>
      </trkpt>
      <trkpt lat="45.990830" lon="6.972260">
        <ele>0.00</ele>
        <time>2022-03-23T18:21:16.24Z</time>
      </trkpt>
      <trkpt lat="45.990800" lon="6.972470">
        <ele>0.00</ele>
        <time>2022-03-23T18:21:17.24Z</time>
      </trkpt>
      <trkpt lat="45.990780" lon="6.972680">
        <ele>0.00</ele>
        <time>2022-03-23T18:21:18.24Z</time>
      </trkpt>
      <trkpt lat="45.990760" lon="6.972890">
        <ele>0.00</ele>
        <time>2022-03-23T18:21:19.24Z</time>
      </trkpt>
      <trkpt lat="45.990730" lon="6.973090">
        <ele>0.00</ele>
        <time>2022-03-23T18:21:20.24Z</time>
      </trkpt>
      <trkpt lat="45.990710" lon="6.973300">
        <ele>0.00</ele>
        <time>2022-03-23T18:21:21.24Z</time>
      </trkpt>
      <trkpt lat="45.990680" lon="6.973510">
        <ele>0.00</ele>
        <time>2022-03-23T18:21:22.24Z</time>
      </trkpt>
      <trkpt lat="45.990660" lon="6.973720">
        <ele>0.00</ele>
        <time>2022-03-23T18:21:23.24Z</time>
      </trkpt>
      <trkpt lat="45.990640" lon="6.973930">
        <ele>0.00</ele>
        <time>2022-03-23T18:21:24.24Z</time>
      </trkpt>
      <trkpt lat="45.990610" lon="6.974140">
        <ele>0.00</ele>
        <time>2022-03-23T18:21:25.24Z</time>
      </trkpt>
      <trkpt lat="45.990590" lon="6.974350">
        <ele>0.00</ele>
        <time>2022-03-23T18:21:26.24Z</time>
      </trkpt>
      <trkpt lat="45.990560" lon="6.974550">
        <ele>0.00</ele>
        <time>2022-03-23T18:21:27.24Z</time>
      </trkpt>
      <trkpt lat="45.990530" lon="6.974760">
        <ele>0.00</ele>
        <time>2022-03-23T18:21:28.24Z</time>
      </trkpt>
      <trkpt lat="45.990490" lon="6.974960">
        <ele>0.00</ele>
        <time>2022-03-23T18:21:29.24Z</time>
      </trkpt>
      <trkpt lat="45.990460" lon="6.975160">
        <ele>0.00</ele>
        <time>2022-03-23T18:21:30.24Z</time>
      </trkpt>
      <trkpt lat="45.990420" lon="6.975360">
        <ele>0.00</ele>
        <time>2022-03-23T18:21:31.24Z</time>
      </trkpt>
      <trkpt lat="45.990380" lon="6.975570">
        <ele>0.00</ele>
        <time>2022-03-23T18:21:32.24Z</time>
      </trkpt>
      <trkpt lat="45.990340" lon="6.975780">
        <ele>0.00</ele>
        <time>2022-03-23T18:21:33.24Z</time>
      </trkpt>
      <trkpt lat="45.990300" lon="6.975980">
        <ele>0.00</ele>
        <time>2022-03-23T18:21:34.24Z</time>
      </trkpt>
      <trkpt lat="45.990270" lon="6.976190">
        <ele>0.00</ele>
        <time>2022-03-23T18:21:35.24Z</time>
      </trkpt>
      <trkpt lat="45.990230" lon="6.976400">
        <ele>0.00</ele>
        <time>2022-03-23T18:21:36.24Z</time>
      </trkpt>
      <trkpt lat="45.990190" lon="6.976600">
        <ele>0.00</ele>
        <time>2022-03-23T18:21:37.24Z</time>
      </trkpt>
      <trkpt lat="45.990150" lon="6.976810">
        <ele>0.00</ele>
        <time>2022-03-23T18:21:38.24Z</time>
      </trkpt>
      <trkpt lat="45.990110" lon="6.977020">
        <ele>0.00</ele>
        <time>2022-03-23T18:21:39.24Z</time>
      </trkpt>
      <trkpt lat="45.990080" lon="6.977220">
        <ele>0.00</ele>
        <time>2022-03-23T18:21:40.24Z</time>
      </trkpt>
      <trkpt lat="45.990040" lon="6.977430">
        <ele>0.00</ele>
        <time>2022-03-23T18:21:41.24Z</time>
      </trkpt>
      <trkpt lat="45.990010" lon="6.977630">
        <ele>0.00</ele>
        <time>2022-03-23T18:21:42.24Z</time>
      </trkpt>
      <trkpt lat="45.990010" lon="6.977840">
        <ele>0.00</ele>
        <time>2022-03-23T18:21:43.24Z</time>
      </trkpt>
      <trkpt lat="45.990010" lon="6.978050">
        <ele>0.00</ele>
        <time>2022-03-23T18:21:44.24Z</time>
      </trkpt>
      <trkpt lat="45.990010" lon="6.978260">
        <ele>0.00</ele>
        <time>2022-03-23T18:21:45.24Z</time>
      </trkpt>
      <trkpt lat="45.990010" lon="6.978470">
        <ele>0.00</ele>
        <time>2022-03-23T18:21:46.24Z</time>
      </trkpt>
      <trkpt lat="45.990010" lon="6.978680">
        <ele>0.00</ele>
        <time>2022-03-23T18:21:47.24Z</time>
      </trkpt>
      <trkpt lat="45.990010" lon="6.978890">
        <ele>0.00</ele>
        <time>2022-03-23T18:21:48.24Z</time>
      </trkpt>
      <trkpt lat="45.990010" lon="6.979090">
        <ele>0.00</ele>
        <time>2022-03-23T18:21:49.24Z</time>
      </trkpt>
      <trkpt lat="45.990010" lon="6.979300">
        <ele>0.00</ele>
        <time>2022-03-23T18:21:50.24Z</time>
      </trkpt>
      <trkpt lat="45.990020" lon="6.979510">
        <ele>0.00</ele>
        <time>2022-03-23T18:21:51.24Z</time>
      </trkpt>
      <trkpt lat="45.990020" lon="6.979720">
        <ele>0.00</ele>
        <time>2022-03-23T18:21:52.24Z</time>
      </trkpt>
      <trkpt lat="45.990020" lon="6.979930">
        <ele>0.00</ele>
        <time>2022-03-23T18:21:53.24Z</time>
      </trkpt>
      <trkpt lat="45.990020" lon="6.980140">
        <ele>0.00</ele>
        <time>2022-03-23T18:21:54.24Z</time>
      </trkpt>
      <trkpt lat="45.990020" lon="6.980350">
        <ele>0.00</ele>
        <time>2022-03-23T18:21:55.24Z</time>
      </trkpt>
      <trkpt lat="45.990010" lon="6.980560">
        <ele>0.00</ele>
        <time>2022-03-23T18:21:56.24Z</time>
      </trkpt>
      <trkpt lat="45.989970" lon="6.980770">
        <ele>0.00</ele>
        <time>2022-03-23T18:21:57.24Z</time>
      </trkpt>
      <trkpt lat="45.989940" lon="6.980960">
        <ele>0.00</ele>
        <time>2022-03-23T18:21:58.24Z</time>
      </trkpt>
      <trkpt lat="45.989900" lon="6.981160">
        <ele>0.00</ele>
        <time>2022-03-23T18:21:59.24Z</time>
      </trkpt>
      <trkpt lat="45.989860" lon="6.981360">
        <ele>0.00</ele>
        <time>2022-03-23T18:22:00.24Z</time>
      </trkpt>
      <trkpt lat="45.989830" lon="6.981560">
        <ele>0.00</ele>
        <time>2022-03-23T18:22:01.24Z</time>
      </trkpt>
      <trkpt lat="45.989790" lon="6.981770">
        <ele>0.00</ele>
        <time>2022-03-23T18:22:02.24Z</time>
      </trkpt>
      <trkpt lat="45.989750" lon="6.981980">
        <ele>0.00</ele>
        <time>2022-03-23T18:22:03.24Z</time>
      </trkpt>
      <trkpt lat="45.989720" lon="6.982180">
        <ele>0.00</ele>
        <time>2022-03-23T18:22:04.24Z</time>
      </trkpt>
      <trkpt lat="45.989680" lon="6.982390">
        <ele>0.00</ele>
        <time>2022-03-23T18:22:05.24Z</time>
      </trkpt>
      <trkpt lat="45.989640" lon="6.982600">
        <ele>0.00</ele>
        <time>2022-03-23T18:22:06.24Z</time>
      </trkpt>
      <trkpt lat="45.989600" lon="6.982800">
        <ele>0.00</ele>
        <time>2022-03-23T18:22:07.24Z</time>
      </trkpt>
      <trkpt lat="45.989570" lon="6.983010">
        <ele>0.00</ele>
        <time>2022-03-23T18:22:08.24Z</time>
      </trkpt>
      <trkpt lat="45.989530" lon="6.983220">
        <ele>0.00</ele>
        <time>2022-03-23T18:22:09.24Z</time>
      </trkpt>
      <trkpt lat="45.989490" lon="6.983420">
        <ele>0.00</ele>
        <time>2022-03-23T18:22:10.24Z</time>
      </trkpt>
      <trkpt lat="45.989460" lon="6.983630">
        <ele>0.00</ele>
        <time>2022-03-23T18:22:11.24Z</time>
      </trkpt>
      <trkpt lat="45.989420" lon="6.983840">
        <ele>0.00</ele>
        <time>2022-03-23T18:22:12.24Z</time>
      </trkpt>
      <trkpt lat="45.989380" lon="6.984040">
        <ele>0.00</ele>
        <time>2022-03-23T18:22:13.24Z</time>
      </trkpt>
      <trkpt lat="45.989340" lon="6.984250">
        <ele>0.00</ele>
        <time>2022-03-23T18:22:14.24Z</time>
      </trkpt>
      <trkpt lat="45.989310" lon="6.984460">
        <ele>0.00</ele>
        <time>2022-03-23T18:22:15.24Z</time>
      </trkpt>
      <trkpt lat="45.989270" lon="6.984660">
        <ele>0.00</ele>
        <time>2022-03-23T18:22:16.24Z</time>
      </trkpt>
      <trkpt lat="45.989190" lon="6.984850">
        <ele>0.00</ele>
        <time>2022-03-23T18:22:17.24Z</time>
      </trkpt>
      <trkpt lat="45.989120" lon="6.985040">
        <ele>0.00</ele>
        <time>2022-03-23T18:22:18.24Z</time>
      </trkpt>
      <trkpt lat="45.989040" lon="6.985230">
        <ele>0.00</ele>
        <time>2022-03-23T18:22:19.24Z</time>
      </trkpt>
      <trkpt lat="45.988970" lon="6.985420">
        <ele>0.00</ele>
        <time>2022-03-23T18:22:20.24Z</time>
      </trkpt>
      <trkpt lat="45.988890" lon="6.985620">
        <ele>0.00</ele>
        <time>2022-03-23T18:22:21.24Z</time>
      </trkpt>
      <trkpt lat="45.988810" lon="6.985820">
        <ele>0.00</ele>
        <time>2022-03-23T18:22:22.24Z</time>
      </trkpt>
      <trkpt lat="45.988740" lon="6.986010">
        <ele>0.00</ele>
        <time>2022-03-23T18:22:23.24Z</time>
      </trkpt>
      <trkpt lat="45.988740" lon="6.986010">
        <ele>0.00</ele>
        <time>2022-03-23T18:19:50.34Z</time>
      </trkpt>
      <trkpt lat="45.988950" lon="6.986010">
        <ele>0.00</ele>
        <time>2022-03-23T18:19:51.34Z</time>
      </trkpt>
      <trkpt lat="45.989160" lon="6.986020">
        <ele>0.00</ele>
        <time>2022-03-23T18:19:52.34Z</time>
      </trkpt>
      <trkpt lat="45.989350" lon="6.986070">
        <ele>0.00</ele>
        <time>2022-03-23T18:19:53.34Z</time>
      </trkpt>
      <trkpt lat="45.989490" lon="6.986230">
        <ele>0.00</ele>
        <time>2022-03-23T18:19:54.34Z</time>
      </trkpt>
      <trkpt lat="45.989630" lon="6.986380">
        <ele>0.00</ele>
        <time>2022-03-23T18:19:55.34Z</time>
      </trkpt>
      <trkpt lat="45.989770" lon="6.986530">
        <ele>0.00</ele>
        <time>2022-03-23T18:19:56.34Z</time>
      </trkpt>
      <trkpt lat="45.989910" lon="6.986680">
        <ele>0.00</ele>
        <time>2022-03-23T18:19:57.34Z</time>
      </trkpt>
      <trkpt lat="45.990050" lon="6.986830">
        <ele>0.00</ele>
        <time>2022-03-23T18:19:58.34Z</time>
      </trkpt>
      <trkpt lat="45.990190" lon="6.986970">
        <ele>0.00</ele>
        <time>2022-03-23T18:19:59.34Z</time>
      </trkpt>
      <trkpt lat="45.990330" lon="6.987110">
        <ele>0.00</ele>
        <time>2022-03-23T18:20:00.34Z</time>
      </trkpt>
      <trkpt lat="45.990470" lon="6.987250">
        <ele>0.00</ele>
        <time>2022-03-23T18:20:01.34Z</time>
      </trkpt>
      <trkpt lat="45.990620" lon="6.987400">
        <ele>0.00</ele>
        <time>2022-03-23T18:20:02.34Z</time>
      </trkpt>
      <trkpt lat="45.990760" lon="6.987540">
        <ele>0.00</ele>
        <time>2022-03-23T18:20:03.34Z</time>
      </trkpt>
      <trkpt lat="45.990910" lon="6.987690">
        <ele>0.00</ele>
        <time>2022-03-23T18:20:04.34Z</time>
      </trkpt>
      <trkpt lat="45.991100" lon="6.987780">
        <ele>0.00</ele>
        <time>2022-03-23T18:20:05.34Z</time>
      </trkpt>
      <trkpt lat="45.991280" lon="6.987880">
        <ele>0.00</ele>
        <time>2022-03-23T18:20:06.34Z</time>
      </trkpt>
      <trkpt lat="45.991470" lon="6.987970">
        <ele>0.00</ele>
        <time>2022-03-23T18:20:07.34Z</time>
      </trkpt>
      <trkpt lat="45.991660" lon="6.988070">
        <ele>0.00</ele>
        <time>2022-03-23T18:20:08.34Z</time>
      </trkpt>
      <trkpt lat="45.991840" lon="6.988160">
        <ele>0.00</ele>
        <time>2022-03-23T18:20:09.34Z</time>
      </trkpt>
      <trkpt lat="45.992030" lon="6.988260">
        <ele>0.00</ele>
        <time>2022-03-23T18:20:10.34Z</time>
      </trkpt>
      <trkpt lat="45.992220" lon="6.988350">
        <ele>0.00</ele>
        <time>2022-03-23T18:20:11.34Z</time>
      </trkpt>
      <trkpt lat="45.992410" lon="6.988450">
        <ele>0.00</ele>
        <time>2022-03-23T18:20:12.34Z</time>
      </trkpt>
      <trkpt lat="45.992590" lon="6.988540">
        <ele>0.00</ele>
        <time>2022-03-23T18:20:13.34Z</time>
      </trkpt>
      <trkpt lat="45.992780" lon="6.988640">
        <ele>0.00</ele>
        <time>2022-03-23T18:20:14.34Z</time>
      </trkpt>
      <trkpt lat="45.992970" lon="6.988730">
        <ele>0.00</ele>
        <time>2022-03-23T18:20:15.34Z</time>
      </trkpt>
      <trkpt lat="45.993150" lon="6.988830">
        <ele>0.00</ele>
        <time>2022-03-23T18:20:16.34Z</time>
      </trkpt>
      <trkpt lat="45.993340" lon="6.988920">
        <ele>0.00</ele>
        <time>2022-03-23T18:20:17.34Z</time>
      </trkpt>
      <trkpt lat="45.993530" lon="6.989020">
        <ele>0.00</ele>
        <time>2022-03-23T18:20:18.34Z</time>
      </trkpt>
      <trkpt lat="45.993720" lon="6.989080">
        <ele>0.00</ele>
        <time>2022-03-23T18:20:19.34Z</time>
      </trkpt>
      <trkpt lat="45.993930" lon="6.989130">
        <ele>0.00</ele>
        <time>2022-03-23T18:20:20.34Z</time>
      </trkpt>
      <trkpt lat="45.994140" lon="6.989170">
        <ele>0.00</ele>
        <time>2022-03-23T18:20:21.34Z</time>
      </trkpt>
      <trkpt lat="45.994340" lon="6.989220">
        <ele>0.00</ele>
        <time>2022-03-23T18:20:22.34Z</time>
      </trkpt>
      <trkpt lat="45.994550" lon="6.989260">
        <ele>0.00</ele>
        <time>2022-03-23T18:20:23.34Z</time>
      </trkpt>
      <trkpt lat="45.994890" lon="6.989340">
        <ele>0.00</ele>
        <time>2022-03-23T18:20:24.34Z</time>
      </trkpt>
      <trkpt lat="45.994880" lon="6.989350">
        <ele>0.00</ele>
        <time>2022-03-23T17:57:48.04Z</time>
      </trkpt>
      <trkpt lat="45.994770" lon="6.989530">
        <ele>0.00</ele>
        <time>2022-03-23T17:57:49.04Z</time>
      </trkpt>
      <trkpt lat="45.994650" lon="6.989710">
        <ele>0.00</ele>
        <time>2022-03-23T17:57:50.04Z</time>
      </trkpt>
      <trkpt lat="45.994540" lon="6.989890">
        <ele>0.00</ele>
        <time>2022-03-23T17:57:51.04Z</time>
      </trkpt>
      <trkpt lat="45.994430" lon="6.990050">
        <ele>0.00</ele>
        <time>2022-03-23T17:57:52.04Z</time>
      </trkpt>
      <trkpt lat="45.994310" lon="6.990220">
        <ele>0.00</ele>
        <time>2022-03-23T17:57:53.04Z</time>
      </trkpt>
      <trkpt lat="45.994190" lon="6.990390">
        <ele>0.00</ele>
        <time>2022-03-23T17:57:54.04Z</time>
      </trkpt>
      <trkpt lat="45.994070" lon="6.990560">
        <ele>0.00</ele>
        <time>2022-03-23T17:57:55.04Z</time>
      </trkpt>
      <trkpt lat="45.993950" lon="6.990730">
        <ele>0.00</ele>
        <time>2022-03-23T17:57:56.04Z</time>
      </trkpt>
      <trkpt lat="45.993820" lon="6.990900">
        <ele>0.00</ele>
        <time>2022-03-23T17:57:57.04Z</time>
      </trkpt>
      <trkpt lat="45.993700" lon="6.991070">
        <ele>0.00</ele>
        <time>2022-03-23T17:57:58.04Z</time>
      </trkpt>
      <trkpt lat="45.993590" lon="6.991240">
        <ele>0.00</ele>
        <time>2022-03-23T17:57:59.04Z</time>
      </trkpt>
      <trkpt lat="45.993470" lon="6.991410">
        <ele>0.00</ele>
        <time>2022-03-23T17:58:00.04Z</time>
      </trkpt>
      <trkpt lat="45.993350" lon="6.991570">
        <ele>0.00</ele>
        <time>2022-03-23T17:58:01.04Z</time>
      </trkpt>
      <trkpt lat="45.993230" lon="6.991740">
        <ele>0.00</ele>
        <time>2022-03-23T17:58:02.04Z</time>
      </trkpt>
      <trkpt lat="45.993110" lon="6.991900">
        <ele>0.00</ele>
        <time>2022-03-23T17:58:03.04Z</time>
      </trkpt>
      <trkpt lat="45.992990" lon="6.992070">
        <ele>0.00</ele>
        <time>2022-03-23T17:58:04.04Z</time>
      </trkpt>
      <trkpt lat="45.992870" lon="6.992240">
        <ele>0.00</ele>
        <time>2022-03-23T17:58:05.04Z</time>
      </trkpt>
      <trkpt lat="45.992740" lon="6.992400">
        <ele>0.00</ele>
        <time>2022-03-23T17:58:06.04Z</time>
      </trkpt>
      <trkpt lat="45.992620" lon="6.992570">
        <ele>0.00</ele>
        <time>2022-03-23T17:58:07.04Z</time>
      </trkpt>
      <trkpt lat="45.992520" lon="6.992750">
        <ele>0.00</ele>
        <time>2022-03-23T17:58:08.04Z</time>
      </trkpt>
      <trkpt lat="45.992430" lon="6.992930">
        <ele>0.00</ele>
        <time>2022-03-23T17:58:09.04Z</time>
      </trkpt>
      <trkpt lat="45.992340" lon="6.993110">
        <ele>0.00</ele>
        <time>2022-03-23T17:58:10.04Z</time>
      </trkpt>
      <trkpt lat="45.992260" lon="6.993290">
        <ele>0.00</ele>
        <time>2022-03-23T17:58:11.04Z</time>
      </trkpt>
      <trkpt lat="45.992170" lon="6.993470">
        <ele>0.00</ele>
        <time>2022-03-23T17:58:12.04Z</time>
      </trkpt>
      <trkpt lat="45.992080" lon="6.993660">
        <ele>0.00</ele>
        <time>2022-03-23T17:58:13.04Z</time>
      </trkpt>
      <trkpt lat="45.991990" lon="6.993840">
        <ele>0.00</ele>
        <time>2022-03-23T17:58:14.04Z</time>
      </trkpt>
      <trkpt lat="45.991900" lon="6.994020">
        <ele>0.00</ele>
        <time>2022-03-23T17:58:15.04Z</time>
      </trkpt>
      <trkpt lat="45.991810" lon="6.994200">
        <ele>0.00</ele>
        <time>2022-03-23T17:58:16.04Z</time>
      </trkpt>
      <trkpt lat="45.991630" lon="6.994300">
        <ele>0.00</ele>
        <time>2022-03-23T17:58:17.04Z</time>
      </trkpt>
      <trkpt lat="45.991450" lon="6.994380">
        <ele>0.00</ele>
        <time>2022-03-23T17:58:18.04Z</time>
      </trkpt>
      <trkpt lat="45.991270" lon="6.994460">
        <ele>0.00</ele>
        <time>2022-03-23T17:58:19.04Z</time>
      </trkpt>
      <trkpt lat="45.991080" lon="6.994540">
        <ele>0.00</ele>
        <time>2022-03-23T17:58:20.04Z</time>
      </trkpt>
      <trkpt lat="45.990900" lon="6.994620">
        <ele>0.00</ele>
        <time>2022-03-23T17:58:21.04Z</time>
      </trkpt>
      <trkpt lat="45.990720" lon="6.994700">
        <ele>0.00</ele>
        <time>2022-03-23T17:58:22.04Z</time>
      </trkpt>
      <trkpt lat="45.990530" lon="6.994780">
        <ele>0.00</ele>
        <time>2022-03-23T17:58:23.04Z</time>
      </trkpt>
      <trkpt lat="45.990370" lon="6.994900">
        <ele>0.00</ele>
        <time>2022-03-23T17:58:24.04Z</time>
      </trkpt>
      <trkpt lat="45.990280" lon="6.995080">
        <ele>0.00</ele>
        <time>2022-03-23T17:58:25.04Z</time>
      </trkpt>
      <trkpt lat="45.990190" lon="6.995260">
        <ele>0.00</ele>
        <time>2022-03-23T17:58:26.04Z</time>
      </trkpt>
      <trkpt lat="45.990090" lon="6.995430">
        <ele>0.00</ele>
        <time>2022-03-23T17:58:27.04Z</time>
      </trkpt>
      <trkpt lat="45.990000" lon="6.995610">
        <ele>0.00</ele>
        <time>2022-03-23T17:58:28.04Z</time>
      </trkpt>
      <trkpt lat="45.989910" lon="6.995790">
        <ele>0.00</ele>
        <time>2022-03-23T17:58:29.04Z</time>
      </trkpt>
      <trkpt lat="45.989820" lon="6.995970">
        <ele>0.00</ele>
        <time>2022-03-23T17:58:30.04Z</time>
      </trkpt>
      <trkpt lat="45.989720" lon="6.996140">
        <ele>0.00</ele>
        <time>2022-03-23T17:58:31.04Z</time>
      </trkpt>
      <trkpt lat="45.989630" lon="6.996320">
        <ele>0.00</ele>
        <time>2022-03-23T17:58:32.04Z</time>
      </trkpt>
      <trkpt lat="45.989530" lon="6.996510">
        <ele>0.00</ele>
        <time>2022-03-23T17:58:33.04Z</time>
      </trkpt>
      <trkpt lat="45.989450" lon="6.996700">
        <ele>0.00</ele>
        <time>2022-03-23T17:58:34.04Z</time>
      </trkpt>
      <trkpt lat="45.989380" lon="6.996890">
        <ele>0.00</ele>
        <time>2022-03-23T17:58:35.04Z</time>
      </trkpt>
      <trkpt lat="45.989320" lon="6.997080">
        <ele>0.00</ele>
        <time>2022-03-23T17:58:36.04Z</time>
      </trkpt>
      <trkpt lat="45.989260" lon="6.997270">
        <ele>0.00</ele>
        <time>2022-03-23T17:58:37.04Z</time>
      </trkpt>
      <trkpt lat="45.989190" lon="6.997460">
        <ele>0.00</ele>
        <time>2022-03-23T17:58:38.04Z</time>
      </trkpt>
      <trkpt lat="45.989130" lon="6.997640">
        <ele>0.00</ele>
        <time>2022-03-23T17:58:39.04Z</time>
      </trkpt>
      <trkpt lat="45.989060" lon="6.997830">
        <ele>0.00</ele>
        <time>2022-03-23T17:58:40.04Z</time>
      </trkpt>
      <trkpt lat="45.989000" lon="6.998020">
        <ele>0.00</ele>
        <time>2022-03-23T17:58:41.04Z</time>
      </trkpt>
      <trkpt lat="45.988930" lon="6.998220">
        <ele>0.00</ele>
        <time>2022-03-23T17:58:42.04Z</time>
      </trkpt>
      <trkpt lat="45.988860" lon="6.998420">
        <ele>0.00</ele>
        <time>2022-03-23T17:58:43.04Z</time>
      </trkpt>
      <trkpt lat="45.988800" lon="6.998620">
        <ele>0.00</ele>
        <time>2022-03-23T17:58:44.04Z</time>
      </trkpt>
      <trkpt lat="45.988730" lon="6.998810">
        <ele>0.00</ele>
        <time>2022-03-23T17:58:45.04Z</time>
      </trkpt>
      <trkpt lat="45.988670" lon="6.999000">
        <ele>0.00</ele>
        <time>2022-03-23T17:58:46.04Z</time>
      </trkpt>
      <trkpt lat="45.988600" lon="6.999190">
        <ele>0.00</ele>
        <time>2022-03-23T17:58:47.04Z</time>
      </trkpt>
      <trkpt lat="45.988530" lon="6.999390">
        <ele>0.00</ele>
        <time>2022-03-23T17:58:48.04Z</time>
      </trkpt>
      <trkpt lat="45.988450" lon="6.999580">
        <ele>0.00</ele>
        <time>2022-03-23T17:58:49.04Z</time>
      </trkpt>
      <trkpt lat="45.988370" lon="6.999780">
        <ele>0.00</ele>
        <time>2022-03-23T17:58:50.04Z</time>
      </trkpt>
      <trkpt lat="45.988290" lon="6.999970">
        <ele>0.00</ele>
        <time>2022-03-23T17:58:51.04Z</time>
      </trkpt>
      <trkpt lat="45.988210" lon="7.000170">
        <ele>0.00</ele>
        <time>2022-03-23T17:58:52.04Z</time>
      </trkpt>
      <trkpt lat="45.988130" lon="7.000360">
        <ele>0.00</ele>
        <time>2022-03-23T17:58:53.04Z</time>
      </trkpt>
      <trkpt lat="45.988050" lon="7.000560">
        <ele>0.00</ele>
        <time>2022-03-23T17:58:54.04Z</time>
      </trkpt>
      <trkpt lat="45.987970" lon="7.000750">
        <ele>0.00</ele>
        <time>2022-03-23T17:58:55.04Z</time>
      </trkpt>
      <trkpt lat="45.987890" lon="7.000940">
        <ele>0.00</ele>
        <time>2022-03-23T17:58:56.04Z</time>
      </trkpt>
      <trkpt lat="45.987820" lon="7.001130">
        <ele>0.00</ele>
        <time>2022-03-23T17:58:57.04Z</time>
      </trkpt>
      <trkpt lat="45.987740" lon="7.001320">
        <ele>0.00</ele>
        <time>2022-03-23T17:58:58.04Z</time>
      </trkpt>
      <trkpt lat="45.987660" lon="7.001510">
        <ele>0.00</ele>
        <time>2022-03-23T17:58:59.04Z</time>
      </trkpt>
      <trkpt lat="45.987580" lon="7.001700">
        <ele>0.00</ele>
        <time>2022-03-23T17:59:00.04Z</time>
      </trkpt>
      <trkpt lat="45.987510" lon="7.001890">
        <ele>0.00</ele>
        <time>2022-03-23T17:59:01.04Z</time>
      </trkpt>
      <trkpt lat="45.987430" lon="7.002080">
        <ele>0.00</ele>
        <time>2022-03-23T17:59:02.04Z</time>
      </trkpt>
      <trkpt lat="45.987350" lon="7.002270">
        <ele>0.00</ele>
        <time>2022-03-23T17:59:03.04Z</time>
      </trkpt>
      <trkpt lat="45.987270" lon="7.002470">
        <ele>0.00</ele>
        <time>2022-03-23T17:59:04.04Z</time>
      </trkpt>
      <trkpt lat="45.987200" lon="7.002660">
        <ele>0.00</ele>
        <time>2022-03-23T17:59:05.04Z</time>
      </trkpt>
      <trkpt lat="45.987120" lon="7.002860">
        <ele>0.00</ele>
        <time>2022-03-23T17:59:06.04Z</time>
      </trkpt>
      <trkpt lat="45.987040" lon="7.003050">
        <ele>0.00</ele>
        <time>2022-03-23T17:59:07.04Z</time>
      </trkpt>
      <trkpt lat="45.986930" lon="7.003220">
        <ele>0.00</ele>
        <time>2022-03-23T17:59:08.04Z</time>
      </trkpt>
      <trkpt lat="45.986820" lon="7.003400">
        <ele>0.00</ele>
        <time>2022-03-23T17:59:09.04Z</time>
      </trkpt>
      <trkpt lat="45.986710" lon="7.003580">
        <ele>0.00</ele>
        <time>2022-03-23T17:59:10.04Z</time>
      </trkpt>
      <trkpt lat="45.986600" lon="7.003760">
        <ele>0.00</ele>
        <time>2022-03-23T17:59:11.04Z</time>
      </trkpt>
      <trkpt lat="45.986490" lon="7.003940">
        <ele>0.00</ele>
        <time>2022-03-23T17:59:12.04Z</time>
      </trkpt>
      <trkpt lat="45.986380" lon="7.004120">
        <ele>0.00</ele>
        <time>2022-03-23T17:59:13.04Z</time>
      </trkpt>
      <trkpt lat="45.986280" lon="7.004290">
        <ele>0.00</ele>
        <time>2022-03-23T17:59:14.04Z</time>
      </trkpt>
      <trkpt lat="45.986170" lon="7.004470">
        <ele>0.00</ele>
        <time>2022-03-23T17:59:15.04Z</time>
      </trkpt>
      <trkpt lat="45.986070" lon="7.004640">
        <ele>0.00</ele>
        <time>2022-03-23T17:59:16.04Z</time>
      </trkpt>
      <trkpt lat="45.985960" lon="7.004820">
        <ele>0.00</ele>
        <time>2022-03-23T17:59:17.04Z</time>
      </trkpt>
      <trkpt lat="45.985850" lon="7.005000">
        <ele>0.00</ele>
        <time>2022-03-23T17:59:18.04Z</time>
      </trkpt>
      <trkpt lat="45.985770" lon="7.005180">
        <ele>0.00</ele>
        <time>2022-03-23T17:59:19.04Z</time>
      </trkpt>
      <trkpt lat="45.985710" lon="7.005380">
        <ele>0.00</ele>
        <time>2022-03-23T17:59:20.04Z</time>
      </trkpt>
      <trkpt lat="45.985650" lon="7.005590">
        <ele>0.00</ele>
        <time>2022-03-23T17:59:21.04Z</time>
      </trkpt>
      <trkpt lat="45.985600" lon="7.005790">
        <ele>0.00</ele>
        <time>2022-03-23T17:59:22.04Z</time>
      </trkpt>
      <trkpt lat="45.985540" lon="7.005990">
        <ele>0.00</ele>
        <time>2022-03-23T17:59:23.04Z</time>
      </trkpt>
      <trkpt lat="45.985480" lon="7.006180">
        <ele>0.00</ele>
        <time>2022-03-23T17:59:24.04Z</time>
      </trkpt>
      <trkpt lat="45.985420" lon="7.006380">
        <ele>0.00</ele>
        <time>2022-03-23T17:59:25.04Z</time>
      </trkpt>
      <trkpt lat="45.985370" lon="7.006580">
        <ele>0.00</ele>
        <time>2022-03-23T17:59:26.04Z</time>
      </trkpt>
      <trkpt lat="45.985310" lon="7.006780">
        <ele>0.00</ele>
        <time>2022-03-23T17:59:27.04Z</time>
      </trkpt>
      <trkpt lat="45.985250" lon="7.006970">
        <ele>0.00</ele>
        <time>2022-03-23T17:59:28.04Z</time>
      </trkpt>
      <trkpt lat="45.985200" lon="7.007170">
        <ele>0.00</ele>
        <time>2022-03-23T17:59:29.04Z</time>
      </trkpt>
      <trkpt lat="45.985140" lon="7.007360">
        <ele>0.00</ele>
        <time>2022-03-23T17:59:30.04Z</time>
      </trkpt>
      <trkpt lat="45.985080" lon="7.007570">
        <ele>0.00</ele>
        <time>2022-03-23T17:59:31.04Z</time>
      </trkpt>
      <trkpt lat="45.985030" lon="7.007760">
        <ele>0.00</ele>
        <time>2022-03-23T17:59:32.04Z</time>
      </trkpt>
      <trkpt lat="45.984970" lon="7.007960">
        <ele>0.00</ele>
        <time>2022-03-23T17:59:33.04Z</time>
      </trkpt>
      <trkpt lat="45.984940" lon="7.008170">
        <ele>0.00</ele>
        <time>2022-03-23T17:59:34.04Z</time>
      </trkpt>
      <trkpt lat="45.984930" lon="7.008380">
        <ele>0.00</ele>
        <time>2022-03-23T17:59:35.04Z</time>
      </trkpt>
      <trkpt lat="45.984930" lon="7.008590">
        <ele>0.00</ele>
        <time>2022-03-23T17:59:36.04Z</time>
      </trkpt>
      <trkpt lat="45.984920" lon="7.008800">
        <ele>0.00</ele>
        <time>2022-03-23T17:59:37.04Z</time>
      </trkpt>
      <trkpt lat="45.984910" lon="7.009010">
        <ele>0.00</ele>
        <time>2022-03-23T17:59:38.04Z</time>
      </trkpt>
      <trkpt lat="45.984900" lon="7.009220">
        <ele>0.00</ele>
        <time>2022-03-23T17:59:39.04Z</time>
      </trkpt>
      <trkpt lat="45.984890" lon="7.009430">
        <ele>0.00</ele>
        <time>2022-03-23T17:59:40.04Z</time>
      </trkpt>
      <trkpt lat="45.984880" lon="7.009640">
        <ele>0.00</ele>
        <time>2022-03-23T17:59:41.04Z</time>
      </trkpt>
      <trkpt lat="45.984870" lon="7.009850">
        <ele>0.00</ele>
        <time>2022-03-23T17:59:42.04Z</time>
      </trkpt>
      <trkpt lat="45.984860" lon="7.010060">
        <ele>0.00</ele>
        <time>2022-03-23T17:59:43.04Z</time>
      </trkpt>
      <trkpt lat="45.984850" lon="7.010260">
        <ele>0.00</ele>
        <time>2022-03-23T17:59:44.04Z</time>
      </trkpt>
      <trkpt lat="45.984840" lon="7.010470">
        <ele>0.00</ele>
        <time>2022-03-23T17:59:45.04Z</time>
      </trkpt>
      <trkpt lat="45.984830" lon="7.010680">
        <ele>0.00</ele>
        <time>2022-03-23T17:59:46.04Z</time>
      </trkpt>
      <trkpt lat="45.984820" lon="7.010890">
        <ele>0.00</ele>
        <time>2022-03-23T17:59:47.04Z</time>
      </trkpt>
      <trkpt lat="45.984850" lon="7.011100">
        <ele>0.00</ele>
        <time>2022-03-23T17:59:48.04Z</time>
      </trkpt>
      <trkpt lat="45.984870" lon="7.011300">
        <ele>0.00</ele>
        <time>2022-03-23T17:59:49.04Z</time>
      </trkpt>
      <trkpt lat="45.984900" lon="7.011500">
        <ele>0.00</ele>
        <time>2022-03-23T17:59:50.04Z</time>
      </trkpt>
      <trkpt lat="45.984920" lon="7.011700">
        <ele>0.00</ele>
        <time>2022-03-23T17:59:51.04Z</time>
      </trkpt>
      <trkpt lat="45.984950" lon="7.011890">
        <ele>0.00</ele>
        <time>2022-03-23T17:59:52.04Z</time>
      </trkpt>
      <trkpt lat="45.984970" lon="7.012090">
        <ele>0.00</ele>
        <time>2022-03-23T17:59:53.04Z</time>
      </trkpt>
      <trkpt lat="45.985000" lon="7.012290">
        <ele>0.00</ele>
        <time>2022-03-23T17:59:54.04Z</time>
      </trkpt>
      <trkpt lat="45.985020" lon="7.012490">
        <ele>0.00</ele>
        <time>2022-03-23T17:59:55.04Z</time>
      </trkpt>
      <trkpt lat="45.985050" lon="7.012690">
        <ele>0.00</ele>
        <time>2022-03-23T17:59:56.04Z</time>
      </trkpt>
      <trkpt lat="45.985070" lon="7.012900">
        <ele>0.00</ele>
        <time>2022-03-23T17:59:57.04Z</time>
      </trkpt>
      <trkpt lat="45.985100" lon="7.013090">
        <ele>0.00</ele>
        <time>2022-03-23T17:59:58.04Z</time>
      </trkpt>
      <trkpt lat="45.985120" lon="7.013300">
        <ele>0.00</ele>
        <time>2022-03-23T17:59:59.04Z</time>
      </trkpt>
      <trkpt lat="45.985140" lon="7.013510">
        <ele>0.00</ele>
        <time>2022-03-23T18:00:00.04Z</time>
      </trkpt>
      <trkpt lat="45.985150" lon="7.013720">
        <ele>0.00</ele>
        <time>2022-03-23T18:00:01.04Z</time>
      </trkpt>
      <trkpt lat="45.985160" lon="7.013930">
        <ele>0.00</ele>
        <time>2022-03-23T18:00:02.04Z</time>
      </trkpt>
      <trkpt lat="45.985180" lon="7.014140">
        <ele>0.00</ele>
        <time>2022-03-23T18:00:03.04Z</time>
      </trkpt>
      <trkpt lat="45.985190" lon="7.014350">
        <ele>0.00</ele>
        <time>2022-03-23T18:00:04.04Z</time>
      </trkpt>
      <trkpt lat="45.985200" lon="7.014550">
        <ele>0.00</ele>
        <time>2022-03-23T18:00:05.04Z</time>
      </trkpt>
      <trkpt lat="45.985210" lon="7.014760">
        <ele>0.00</ele>
        <time>2022-03-23T18:00:06.04Z</time>
      </trkpt>
      <trkpt lat="45.985220" lon="7.014970">
        <ele>0.00</ele>
        <time>2022-03-23T18:00:07.04Z</time>
      </trkpt>
      <trkpt lat="45.985240" lon="7.015180">
        <ele>0.00</ele>
        <time>2022-03-23T18:00:08.04Z</time>
      </trkpt>
      <trkpt lat="45.985250" lon="7.015380">
        <ele>0.00</ele>
        <time>2022-03-23T18:00:09.04Z</time>
      </trkpt>
      <trkpt lat="45.985260" lon="7.015590">
        <ele>0.00</ele>
        <time>2022-03-23T18:00:10.04Z</time>
      </trkpt>
      <trkpt lat="45.985270" lon="7.015780">
        <ele>0.00</ele>
        <time>2022-03-23T18:00:11.04Z</time>
      </trkpt>
      <trkpt lat="45.985290" lon="7.015990">
        <ele>0.00</ele>
        <time>2022-03-23T18:00:12.04Z</time>
      </trkpt>
      <trkpt lat="45.985400" lon="7.016150">
        <ele>0.00</ele>
        <time>2022-03-23T18:00:13.04Z</time>
      </trkpt>
      <trkpt lat="45.985520" lon="7.016320">
        <ele>0.00</ele>
        <time>2022-03-23T18:00:14.04Z</time>
      </trkpt>
      <trkpt lat="45.985640" lon="7.016490">
        <ele>0.00</ele>
        <time>2022-03-23T18:00:15.04Z</time>
      </trkpt>
      <trkpt lat="45.985720" lon="7.016680">
        <ele>0.00</ele>
        <time>2022-03-23T18:00:16.04Z</time>
      </trkpt>
      <trkpt lat="45.985800" lon="7.016870">
        <ele>0.00</ele>
        <time>2022-03-23T18:00:17.04Z</time>
      </trkpt>
      <trkpt lat="45.985770" lon="7.017070">
        <ele>0.00</ele>
        <time>2022-03-23T18:00:18.04Z</time>
      </trkpt>
      <trkpt lat="45.985720" lon="7.017270">
        <ele>0.00</ele>
        <time>2022-03-23T18:00:19.04Z</time>
      </trkpt>
      <trkpt lat="45.985680" lon="7.017470">
        <ele>0.00</ele>
        <time>2022-03-23T18:00:20.04Z</time>
      </trkpt>
      <trkpt lat="45.985640" lon="7.017670">
        <ele>0.00</ele>
        <time>2022-03-23T18:00:21.04Z</time>
      </trkpt>
      <trkpt lat="45.985600" lon="7.017870">
        <ele>0.00</ele>
        <time>2022-03-23T18:00:22.04Z</time>
      </trkpt>
      <trkpt lat="45.985550" lon="7.018070">
        <ele>0.00</ele>
        <time>2022-03-23T18:00:23.04Z</time>
      </trkpt>
      <trkpt lat="45.985540" lon="7.018280">
        <ele>0.00</ele>
        <time>2022-03-23T18:00:24.04Z</time>
      </trkpt>
      <trkpt lat="45.985530" lon="7.018480">
        <ele>0.00</ele>
        <time>2022-03-23T18:00:25.04Z</time>
      </trkpt>
      <trkpt lat="45.985530" lon="7.018680">
        <ele>0.00</ele>
        <time>2022-03-23T18:00:26.04Z</time>
      </trkpt>
      <trkpt lat="45.985520" lon="7.018880">
        <ele>0.00</ele>
        <time>2022-03-23T18:00:27.04Z</time>
      </trkpt>
      <trkpt lat="45.985520" lon="7.019080">
        <ele>0.00</ele>
        <time>2022-03-23T18:00:28.04Z</time>
      </trkpt>
      <trkpt lat="45.985520" lon="7.019280">
        <ele>0.00</ele>
        <time>2022-03-23T18:00:29.04Z</time>
      </trkpt>
      <trkpt lat="45.985510" lon="7.019480">
        <ele>0.00</ele>
        <time>2022-03-23T18:00:30.04Z</time>
      </trkpt>
      <trkpt lat="45.985510" lon="7.019680">
        <ele>0.00</ele>
        <time>2022-03-23T18:00:31.04Z</time>
      </trkpt>
      <trkpt lat="45.985500" lon="7.019880">
        <ele>0.00</ele>
        <time>2022-03-23T18:00:32.04Z</time>
      </trkpt>
      <trkpt lat="45.985500" lon="7.020080">
        <ele>0.00</ele>
        <time>2022-03-23T18:00:33.04Z</time>
      </trkpt>
      <trkpt lat="45.985500" lon="7.020280">
        <ele>0.00</ele>
        <time>2022-03-23T18:00:34.04Z</time>
      </trkpt>
      <trkpt lat="45.985500" lon="7.020480">
        <ele>0.00</ele>
        <time>2022-03-23T18:00:35.04Z</time>
      </trkpt>
      <trkpt lat="45.985510" lon="7.020680">
        <ele>0.00</ele>
        <time>2022-03-23T18:00:36.04Z</time>
      </trkpt>
      <trkpt lat="45.985510" lon="7.020880">
        <ele>0.00</ele>
        <time>2022-03-23T18:00:37.04Z</time>
      </trkpt>
      <trkpt lat="45.985520" lon="7.021080">
        <ele>0.00</ele>
        <time>2022-03-23T18:00:38.04Z</time>
      </trkpt>
      <trkpt lat="45.985530" lon="7.021280">
        <ele>0.00</ele>
        <time>2022-03-23T18:00:39.04Z</time>
      </trkpt>
      <trkpt lat="45.985530" lon="7.021480">
        <ele>0.00</ele>
        <time>2022-03-23T18:00:40.04Z</time>
      </trkpt>
      <trkpt lat="45.985540" lon="7.021680">
        <ele>0.00</ele>
        <time>2022-03-23T18:00:41.04Z</time>
      </trkpt>
      <trkpt lat="45.985550" lon="7.021880">
        <ele>0.00</ele>
        <time>2022-03-23T18:00:42.04Z</time>
      </trkpt>
      <trkpt lat="45.985580" lon="7.022090">
        <ele>0.00</ele>
        <time>2022-03-23T18:00:43.04Z</time>
      </trkpt>
      <trkpt lat="45.985620" lon="7.022290">
        <ele>0.00</ele>
        <time>2022-03-23T18:00:44.04Z</time>
      </trkpt>
      <trkpt lat="45.985650" lon="7.022500">
        <ele>0.00</ele>
        <time>2022-03-23T18:00:45.04Z</time>
      </trkpt>
      <trkpt lat="45.985690" lon="7.022710">
        <ele>0.00</ele>
        <time>2022-03-23T18:00:46.04Z</time>
      </trkpt>
      <trkpt lat="45.985730" lon="7.022910">
        <ele>0.00</ele>
        <time>2022-03-23T18:00:47.04Z</time>
      </trkpt>
      <trkpt lat="45.985760" lon="7.023110">
        <ele>0.00</ele>
        <time>2022-03-23T18:00:48.04Z</time>
      </trkpt>
      <trkpt lat="45.985800" lon="7.023310">
        <ele>0.00</ele>
        <time>2022-03-23T18:00:49.04Z</time>
      </trkpt>
      <trkpt lat="45.985860" lon="7.023510">
        <ele>0.00</ele>
        <time>2022-03-23T18:00:50.04Z</time>
      </trkpt>
      <trkpt lat="45.985920" lon="7.023720">
        <ele>0.00</ele>
        <time>2022-03-23T18:00:51.04Z</time>
      </trkpt>
      <trkpt lat="45.985970" lon="7.023910">
        <ele>0.00</ele>
        <time>2022-03-23T18:00:52.04Z</time>
      </trkpt>
      <trkpt lat="45.986020" lon="7.024100">
        <ele>0.00</ele>
        <time>2022-03-23T18:00:53.04Z</time>
      </trkpt>
      <trkpt lat="45.986080" lon="7.024290">
        <ele>0.00</ele>
        <time>2022-03-23T18:00:54.04Z</time>
      </trkpt>
      <trkpt lat="45.986130" lon="7.024490">
        <ele>0.00</ele>
        <time>2022-03-23T18:00:55.04Z</time>
      </trkpt>
      <trkpt lat="45.986190" lon="7.024680">
        <ele>0.00</ele>
        <time>2022-03-23T18:00:56.04Z</time>
      </trkpt>
      <trkpt lat="45.986240" lon="7.024870">
        <ele>0.00</ele>
        <time>2022-03-23T18:00:57.04Z</time>
      </trkpt>
      <trkpt lat="45.986300" lon="7.025060">
        <ele>0.00</ele>
        <time>2022-03-23T18:00:58.04Z</time>
      </trkpt>
      <trkpt lat="45.986350" lon="7.025260">
        <ele>0.00</ele>
        <time>2022-03-23T18:00:59.04Z</time>
      </trkpt>
      <trkpt lat="45.986410" lon="7.025460">
        <ele>0.00</ele>
        <time>2022-03-23T18:01:00.04Z</time>
      </trkpt>
      <trkpt lat="45.986460" lon="7.025660">
        <ele>0.00</ele>
        <time>2022-03-23T18:01:01.04Z</time>
      </trkpt>
      <trkpt lat="45.986500" lon="7.025860">
        <ele>0.00</ele>
        <time>2022-03-23T18:01:02.04Z</time>
      </trkpt>
      <trkpt lat="45.986530" lon="7.026060">
        <ele>0.00</ele>
        <time>2022-03-23T18:01:03.04Z</time>
      </trkpt>
      <trkpt lat="45.986550" lon="7.026250">
        <ele>0.00</ele>
        <time>2022-03-23T18:01:04.04Z</time>
      </trkpt>
      <trkpt lat="45.986570" lon="7.026450">
        <ele>0.00</ele>
        <time>2022-03-23T18:01:05.04Z</time>
      </trkpt>
      <trkpt lat="45.986600" lon="7.026650">
        <ele>0.00</ele>
        <time>2022-03-23T18:01:06.04Z</time>
      </trkpt>
      <trkpt lat="45.986620" lon="7.026850">
        <ele>0.00</ele>
        <time>2022-03-23T18:01:07.04Z</time>
      </trkpt>
      <trkpt lat="45.986640" lon="7.027050">
        <ele>0.00</ele>
        <time>2022-03-23T18:01:08.04Z</time>
      </trkpt>
      <trkpt lat="45.986670" lon="7.027260">
        <ele>0.00</ele>
        <time>2022-03-23T18:01:09.04Z</time>
      </trkpt>
      <trkpt lat="45.986690" lon="7.027470">
        <ele>0.00</ele>
        <time>2022-03-23T18:01:10.04Z</time>
      </trkpt>
      <trkpt lat="45.986720" lon="7.027680">
        <ele>0.00</ele>
        <time>2022-03-23T18:01:11.04Z</time>
      </trkpt>
      <trkpt lat="45.986740" lon="7.027870">
        <ele>0.00</ele>
        <time>2022-03-23T18:01:12.04Z</time>
      </trkpt>
      <trkpt lat="45.986760" lon="7.028080">
        <ele>0.00</ele>
        <time>2022-03-23T18:01:13.04Z</time>
      </trkpt>
      <trkpt lat="45.986790" lon="7.028280">
        <ele>0.00</ele>
        <time>2022-03-23T18:01:14.04Z</time>
      </trkpt>
      <trkpt lat="45.986810" lon="7.028480">
        <ele>0.00</ele>
        <time>2022-03-23T18:01:15.04Z</time>
      </trkpt>
      <trkpt lat="45.986800" lon="7.028680">
        <ele>0.00</ele>
        <time>2022-03-23T18:01:16.04Z</time>
      </trkpt>
      <trkpt lat="45.986800" lon="7.028880">
        <ele>0.00</ele>
        <time>2022-03-23T18:01:17.04Z</time>
      </trkpt>
      <trkpt lat="45.986790" lon="7.029080">
        <ele>0.00</ele>
        <time>2022-03-23T18:01:18.04Z</time>
      </trkpt>
      <trkpt lat="45.986790" lon="7.029280">
        <ele>0.00</ele>
        <time>2022-03-23T18:01:19.04Z</time>
      </trkpt>
      <trkpt lat="45.986780" lon="7.029480">
        <ele>0.00</ele>
        <time>2022-03-23T18:01:20.04Z</time>
      </trkpt>
      <trkpt lat="45.986770" lon="7.029680">
        <ele>0.00</ele>
        <time>2022-03-23T18:01:21.04Z</time>
      </trkpt>
      <trkpt lat="45.986770" lon="7.029880">
        <ele>0.00</ele>
        <time>2022-03-23T18:01:22.04Z</time>
      </trkpt>
      <trkpt lat="45.986760" lon="7.030080">
        <ele>0.00</ele>
        <time>2022-03-23T18:01:23.04Z</time>
      </trkpt>
      <trkpt lat="45.986760" lon="7.030280">
        <ele>0.00</ele>
        <time>2022-03-23T18:01:24.04Z</time>
      </trkpt>
      <trkpt lat="45.986750" lon="7.030480">
        <ele>0.00</ele>
        <time>2022-03-23T18:01:25.04Z</time>
      </trkpt>
      <trkpt lat="45.986750" lon="7.030680">
        <ele>0.00</ele>
        <time>2022-03-23T18:01:26.04Z</time>
      </trkpt>
      <trkpt lat="45.986740" lon="7.030890">
        <ele>0.00</ele>
        <time>2022-03-23T18:01:27.04Z</time>
      </trkpt>
      <trkpt lat="45.986730" lon="7.031150">
        <ele>0.00</ele>
        <time>2022-03-23T18:01:28.04Z</time>
      </trkpt>
      <trkpt lat="45.986730" lon="7.031130">
        <ele>0.00</ele>
        <time>2022-03-23T19:18:42.89Z</time>
      </trkpt>
      <trkpt lat="45.986780" lon="7.031330">
        <ele>0.00</ele>
        <time>2022-03-23T19:18:43.89Z</time>
      </trkpt>
      <trkpt lat="45.986820" lon="7.031520">
        <ele>0.00</ele>
        <time>2022-03-23T19:18:44.89Z</time>
      </trkpt>
      <trkpt lat="45.986870" lon="7.031720">
        <ele>0.00</ele>
        <time>2022-03-23T19:18:45.89Z</time>
      </trkpt>
      <trkpt lat="45.986920" lon="7.031910">
        <ele>0.00</ele>
        <time>2022-03-23T19:18:46.89Z</time>
      </trkpt>
      <trkpt lat="45.986970" lon="7.032110">
        <ele>0.00</ele>
        <time>2022-03-23T19:18:47.89Z</time>
      </trkpt>
      <trkpt lat="45.987020" lon="7.032310">
        <ele>0.00</ele>
        <time>2022-03-23T19:18:48.89Z</time>
      </trkpt>
      <trkpt lat="45.987100" lon="7.032490">
        <ele>0.00</ele>
        <time>2022-03-23T19:18:49.89Z</time>
      </trkpt>
      <trkpt lat="45.987170" lon="7.032680">
        <ele>0.00</ele>
        <time>2022-03-23T19:18:50.89Z</time>
      </trkpt>
      <trkpt lat="45.987250" lon="7.032860">
        <ele>0.00</ele>
        <time>2022-03-23T19:18:51.89Z</time>
      </trkpt>
      <trkpt lat="45.987330" lon="7.033050">
        <ele>0.00</ele>
        <time>2022-03-23T19:18:52.89Z</time>
      </trkpt>
      <trkpt lat="45.987400" lon="7.033230">
        <ele>0.00</ele>
        <time>2022-03-23T19:18:53.89Z</time>
      </trkpt>
      <trkpt lat="45.987480" lon="7.033410">
        <ele>0.00</ele>
        <time>2022-03-23T19:18:54.89Z</time>
      </trkpt>
      <trkpt lat="45.987560" lon="7.033600">
        <ele>0.00</ele>
        <time>2022-03-23T19:18:55.89Z</time>
      </trkpt>
      <trkpt lat="45.987630" lon="7.033780">
        <ele>0.00</ele>
        <time>2022-03-23T19:18:56.89Z</time>
      </trkpt>
      <trkpt lat="45.987710" lon="7.033980">
        <ele>0.00</ele>
        <time>2022-03-23T19:18:57.89Z</time>
      </trkpt>
      <trkpt lat="45.987790" lon="7.034160">
        <ele>0.00</ele>
        <time>2022-03-23T19:18:58.89Z</time>
      </trkpt>
      <trkpt lat="45.987870" lon="7.034360">
        <ele>0.00</ele>
        <time>2022-03-23T19:18:59.89Z</time>
      </trkpt>
      <trkpt lat="45.987980" lon="7.034530">
        <ele>0.00</ele>
        <time>2022-03-23T19:19:00.89Z</time>
      </trkpt>
      <trkpt lat="45.988100" lon="7.034690">
        <ele>0.00</ele>
        <time>2022-03-23T19:19:01.89Z</time>
      </trkpt>
      <trkpt lat="45.988220" lon="7.034850">
        <ele>0.00</ele>
        <time>2022-03-23T19:19:02.89Z</time>
      </trkpt>
      <trkpt lat="45.988350" lon="7.035000">
        <ele>0.00</ele>
        <time>2022-03-23T19:19:03.89Z</time>
      </trkpt>
      <trkpt lat="45.988470" lon="7.035160">
        <ele>0.00</ele>
        <time>2022-03-23T19:19:04.89Z</time>
      </trkpt>
      <trkpt lat="45.988600" lon="7.035320">
        <ele>0.00</ele>
        <time>2022-03-23T19:19:05.89Z</time>
      </trkpt>
      <trkpt lat="45.988720" lon="7.035470">
        <ele>0.00</ele>
        <time>2022-03-23T19:19:06.89Z</time>
      </trkpt>
      <trkpt lat="45.988850" lon="7.035630">
        <ele>0.00</ele>
        <time>2022-03-23T19:19:07.89Z</time>
      </trkpt>
      <trkpt lat="45.988970" lon="7.035790">
        <ele>0.00</ele>
        <time>2022-03-23T19:19:08.89Z</time>
      </trkpt>
      <trkpt lat="45.989100" lon="7.035940">
        <ele>0.00</ele>
        <time>2022-03-23T19:19:09.89Z</time>
      </trkpt>
      <trkpt lat="45.989230" lon="7.036100">
        <ele>0.00</ele>
        <time>2022-03-23T19:19:10.89Z</time>
      </trkpt>
      <trkpt lat="45.989390" lon="7.036210">
        <ele>0.00</ele>
        <time>2022-03-23T19:19:11.89Z</time>
      </trkpt>
      <trkpt lat="45.989560" lon="7.036330">
        <ele>0.00</ele>
        <time>2022-03-23T19:19:12.89Z</time>
      </trkpt>
      <trkpt lat="45.989720" lon="7.036440">
        <ele>0.00</ele>
        <time>2022-03-23T19:19:13.89Z</time>
      </trkpt>
      <trkpt lat="45.989880" lon="7.036560">
        <ele>0.00</ele>
        <time>2022-03-23T19:19:14.89Z</time>
      </trkpt>
      <trkpt lat="45.990050" lon="7.036670">
        <ele>0.00</ele>
        <time>2022-03-23T19:19:15.89Z</time>
      </trkpt>
      <trkpt lat="45.990210" lon="7.036790">
        <ele>0.00</ele>
        <time>2022-03-23T19:19:16.89Z</time>
      </trkpt>
      <trkpt lat="45.990370" lon="7.036900">
        <ele>0.00</ele>
        <time>2022-03-23T19:19:17.89Z</time>
      </trkpt>
      <trkpt lat="45.990540" lon="7.037020">
        <ele>0.00</ele>
        <time>2022-03-23T19:19:18.89Z</time>
      </trkpt>
      <trkpt lat="45.990710" lon="7.037130">
        <ele>0.00</ele>
        <time>2022-03-23T19:19:19.89Z</time>
      </trkpt>
      <trkpt lat="45.990870" lon="7.037250">
        <ele>0.00</ele>
        <time>2022-03-23T19:19:20.89Z</time>
      </trkpt>
      <trkpt lat="45.991030" lon="7.037360">
        <ele>0.00</ele>
        <time>2022-03-23T19:19:21.89Z</time>
      </trkpt>
      <trkpt lat="45.991210" lon="7.037490">
        <ele>0.00</ele>
        <time>2022-03-23T19:19:22.89Z</time>
      </trkpt>
      <trkpt lat="45.991370" lon="7.037600">
        <ele>0.00</ele>
        <time>2022-03-23T19:19:23.89Z</time>
      </trkpt>
      <trkpt lat="45.991540" lon="7.037720">
        <ele>0.00</ele>
        <time>2022-03-23T19:19:24.89Z</time>
      </trkpt>
      <trkpt lat="45.991710" lon="7.037840">
        <ele>0.00</ele>
        <time>2022-03-23T19:19:25.89Z</time>
      </trkpt>
      <trkpt lat="45.991880" lon="7.037950">
        <ele>0.00</ele>
        <time>2022-03-23T19:19:26.89Z</time>
      </trkpt>
      <trkpt lat="45.992060" lon="7.038060">
        <ele>0.00</ele>
        <time>2022-03-23T19:19:27.89Z</time>
      </trkpt>
      <trkpt lat="45.992240" lon="7.038170">
        <ele>0.00</ele>
        <time>2022-03-23T19:19:28.89Z</time>
      </trkpt>
      <trkpt lat="45.992410" lon="7.038280">
        <ele>0.00</ele>
        <time>2022-03-23T19:19:29.89Z</time>
      </trkpt>
      <trkpt lat="45.992580" lon="7.038390">
        <ele>0.00</ele>
        <time>2022-03-23T19:19:30.89Z</time>
      </trkpt>
      <trkpt lat="45.992770" lon="7.038490">
        <ele>0.00</ele>
        <time>2022-03-23T19:19:31.89Z</time>
      </trkpt>
      <trkpt lat="45.992960" lon="7.038540">
        <ele>0.00</ele>
        <time>2022-03-23T19:19:32.89Z</time>
      </trkpt>
      <trkpt lat="45.993160" lon="7.038600">
        <ele>0.00</ele>
        <time>2022-03-23T19:19:33.89Z</time>
      </trkpt>
      <trkpt lat="45.993360" lon="7.038650">
        <ele>0.00</ele>
        <time>2022-03-23T19:19:34.89Z</time>
      </trkpt>
      <trkpt lat="45.993550" lon="7.038700">
        <ele>0.00</ele>
        <time>2022-03-23T19:19:35.89Z</time>
      </trkpt>
      <trkpt lat="45.993750" lon="7.038760">
        <ele>0.00</ele>
        <time>2022-03-23T19:19:36.89Z</time>
      </trkpt>
      <trkpt lat="45.993950" lon="7.038810">
        <ele>0.00</ele>
        <time>2022-03-23T19:19:37.89Z</time>
      </trkpt>
      <trkpt lat="45.994140" lon="7.038860">
        <ele>0.00</ele>
        <time>2022-03-23T19:19:38.89Z</time>
      </trkpt>
      <trkpt lat="45.994340" lon="7.038910">
        <ele>0.00</ele>
        <time>2022-03-23T19:19:39.89Z</time>
      </trkpt>
      <trkpt lat="45.994550" lon="7.038950">
        <ele>0.00</ele>
        <time>2022-03-23T19:19:40.89Z</time>
      </trkpt>
      <trkpt lat="45.994750" lon="7.038990">
        <ele>0.00</ele>
        <time>2022-03-23T19:19:41.89Z</time>
      </trkpt>
      <trkpt lat="45.994960" lon="7.039040">
        <ele>0.00</ele>
        <time>2022-03-23T19:19:42.89Z</time>
      </trkpt>
      <trkpt lat="45.995160" lon="7.039080">
        <ele>0.00</ele>
        <time>2022-03-23T19:19:43.89Z</time>
      </trkpt>
      <trkpt lat="45.995370" lon="7.039120">
        <ele>0.00</ele>
        <time>2022-03-23T19:19:44.89Z</time>
      </trkpt>
      <trkpt lat="45.995570" lon="7.039170">
        <ele>0.00</ele>
        <time>2022-03-23T19:19:45.89Z</time>
      </trkpt>
      <trkpt lat="45.995780" lon="7.039210">
        <ele>0.00</ele>
        <time>2022-03-23T19:19:46.89Z</time>
      </trkpt>
      <trkpt lat="45.995980" lon="7.039250">
        <ele>0.00</ele>
        <time>2022-03-23T19:19:47.89Z</time>
      </trkpt>
      <trkpt lat="45.996180" lon="7.039330">
        <ele>0.00</ele>
        <time>2022-03-23T19:19:48.89Z</time>
      </trkpt>
      <trkpt lat="45.996350" lon="7.039440">
        <ele>0.00</ele>
        <time>2022-03-23T19:19:49.89Z</time>
      </trkpt>
      <trkpt lat="45.996510" lon="7.039540">
        <ele>0.00</ele>
        <time>2022-03-23T19:19:50.89Z</time>
      </trkpt>
      <trkpt lat="45.996680" lon="7.039650">
        <ele>0.00</ele>
        <time>2022-03-23T19:19:51.89Z</time>
      </trkpt>
      <trkpt lat="45.996850" lon="7.039760">
        <ele>0.00</ele>
        <time>2022-03-23T19:19:52.89Z</time>
      </trkpt>
      <trkpt lat="45.997020" lon="7.039860">
        <ele>0.00</ele>
        <time>2022-03-23T19:19:53.89Z</time>
      </trkpt>
      <trkpt lat="45.997190" lon="7.039970">
        <ele>0.00</ele>
        <time>2022-03-23T19:19:54.89Z</time>
      </trkpt>
      <trkpt lat="45.997360" lon="7.040080">
        <ele>0.00</ele>
        <time>2022-03-23T19:19:55.89Z</time>
      </trkpt>
      <trkpt lat="45.997530" lon="7.040180">
        <ele>0.00</ele>
        <time>2022-03-23T19:19:56.89Z</time>
      </trkpt>
      <trkpt lat="45.997700" lon="7.040290">
        <ele>0.00</ele>
        <time>2022-03-23T19:19:57.89Z</time>
      </trkpt>
      <trkpt lat="45.997870" lon="7.040400">
        <ele>0.00</ele>
        <time>2022-03-23T19:19:58.89Z</time>
      </trkpt>
      <trkpt lat="45.998040" lon="7.040500">
        <ele>0.00</ele>
        <time>2022-03-23T19:19:59.89Z</time>
      </trkpt>
      <trkpt lat="45.998210" lon="7.040610">
        <ele>0.00</ele>
        <time>2022-03-23T19:20:00.89Z</time>
      </trkpt>
      <trkpt lat="45.998380" lon="7.040720">
        <ele>0.00</ele>
        <time>2022-03-23T19:20:01.89Z</time>
      </trkpt>
      <trkpt lat="45.998550" lon="7.040820">
        <ele>0.00</ele>
        <time>2022-03-23T19:20:02.89Z</time>
      </trkpt>
      <trkpt lat="45.998730" lon="7.040930">
        <ele>0.00</ele>
        <time>2022-03-23T19:20:03.89Z</time>
      </trkpt>
      <trkpt lat="45.998910" lon="7.041040">
        <ele>0.00</ele>
        <time>2022-03-23T19:20:04.89Z</time>
      </trkpt>
      <trkpt lat="45.999090" lon="7.041140">
        <ele>0.00</ele>
        <time>2022-03-23T19:20:05.89Z</time>
      </trkpt>
      <trkpt lat="45.999270" lon="7.041250">
        <ele>0.00</ele>
        <time>2022-03-23T19:20:06.89Z</time>
      </trkpt>
      <trkpt lat="45.999450" lon="7.041360">
        <ele>0.00</ele>
        <time>2022-03-23T19:20:07.89Z</time>
      </trkpt>
      <trkpt lat="45.999630" lon="7.041460">
        <ele>0.00</ele>
        <time>2022-03-23T19:20:08.89Z</time>
      </trkpt>
      <trkpt lat="45.999810" lon="7.041560">
        <ele>0.00</ele>
        <time>2022-03-23T19:20:09.89Z</time>
      </trkpt>
      <trkpt lat="45.999920" lon="7.041730">
        <ele>0.00</ele>
        <time>2022-03-23T19:20:10.89Z</time>
      </trkpt>
      <trkpt lat="45.999970" lon="7.041930">
        <ele>0.00</ele>
        <time>2022-03-23T19:20:11.89Z</time>
      </trkpt>
      <trkpt lat="46.000030" lon="7.042140">
        <ele>0.00</ele>
        <time>2022-03-23T19:20:12.89Z</time>
      </trkpt>
      <trkpt lat="46.000080" lon="7.042330">
        <ele>0.00</ele>
        <time>2022-03-23T19:20:13.89Z</time>
      </trkpt>
      <trkpt lat="46.000130" lon="7.042530">
        <ele>0.00</ele>
        <time>2022-03-23T19:20:14.89Z</time>
      </trkpt>
      <trkpt lat="46.000160" lon="7.042740">
        <ele>0.00</ele>
        <time>2022-03-23T19:20:15.89Z</time>
      </trkpt>
      <trkpt lat="46.000150" lon="7.042950">
        <ele>0.00</ele>
        <time>2022-03-23T19:20:16.89Z</time>
      </trkpt>
      <trkpt lat="46.000140" lon="7.043160">
        <ele>0.00</ele>
        <time>2022-03-23T19:20:17.89Z</time>
      </trkpt>
      <trkpt lat="46.000060" lon="7.043350">
        <ele>0.00</ele>
        <time>2022-03-23T19:20:18.89Z</time>
      </trkpt>
      <trkpt lat="45.999920" lon="7.043510">
        <ele>0.00</ele>
        <time>2022-03-23T19:20:19.89Z</time>
      </trkpt>
      <trkpt lat="45.999700" lon="7.043680">
        <ele>0.00</ele>
        <time>2022-03-23T19:20:20.89Z</time>
      </trkpt>
    </trkseg>
  </trk>
</gpx>
